Seattle, WA

2:11 PM PDT on August 29, 2014 (GMT -0700)
Roosevelt - Tomster | Change Station
CLOSE
Current Station
Personal Weather Station
Location: Seattle, WA
Elevation: 180 ft
Nearby Weather Stations

Elev 180 ft 47.67 °N, 122.32 °W | Updated 1 minute ago

Overcast
Overcast
65.8 °F
Feels Like 65.8 °F
N
5.0
Wind Variable Wind from NNW
Gusts 14.0 mph

Today
High -- | Low -- °F
--% Chance of Precip.
Yesterday
High -- | Low -- °F
Precip. -- in
6:23 AM 7:55 PM
Waxing Crescent, 16% visible
Pressure 29.99 in
Visibility 10.0 miles
Clouds Mostly Cloudy 9000 ft
Dew Point 56 °F
Humidity 70%
Rainfall 0.00 in
Snow Depth Not available.
UV 4 out of 12
Pollen 2.40 out of 12
Air Quality Not available.
Flu Activity Not available.
METAR KBFI 292053Z VRB05KT 10SM BKN090 20/12 A2999 RMK AO2 SLP155 60000 T02000117 58000

More Conditions Fewer Conditions

Pressure 29.99 in
Visibility 10.0 miles
Clouds Mostly Cloudy 9000 ft
Dew Point 56 °F
Humidity 70%
Rainfall 0.00 in
Snow Depth Not available.
UV 4 out of 12
Pollen 2.40 out of 12
Air Quality Not available.
Flu Activity Not available.
METAR KBFI 292053Z VRB05KT 10SM BKN090 20/12 A2999 RMK AO2 SLP155 60000 T02000117 58000

More Conditions Fewer Conditions

10-Day Weather Forecast

Almanac

Astronomy

Aug. 29, 2014 Rise Set
Actual Time 6:23 AM PDT 7:55 PM PDT
Civil Twilight 5:51 AM PDT 8:27 PM PDT
Nautical Twilight 5:12 AM PDT 9:06 PM PDT
Astronomical Twilight 4:29 AM PDT 9:48 PM PDT
Moon 10:38 AM PDT 9:35 PM PDT
Length of Visible Light 14h 35m
Length of Day
13h 31m
Tomorrow will be 3m 18s shorter.
Waxing Crescent, 16% of the Moon is Illuminated
Today
Waxing Crescent
Sep 2
First Quarter
Sep 8
Full
Sep 15
Last Quarter
Sep 24
New

Today's Extremes

State Highs State Lows

Community

WunderPhotos

Upload Photos

1,748,348 photos uploaded!

Nearby

Air Quality

  Air Quality AQ Index Pollutant
Friday Good
OZONE
Friday Good
PM2.5
Saturday Good
OZONE
Saturday Good
PM2.5
Sunday Good
OZONE
Sunday Good
PM2.5
Monday Good
OZONE
Monday Good
PM2.5
Tuesday Good
OZONE
Tuesday Good
PM2.5
Wednesday Good
OZONE
Wednesday Good
PM2.5

Snow Depth

Station Depth Elevation
Alpine Meadows 0 in 3500 ft
Mount Crag 0 in 4050 ft
Dungeness 0 in 4100 ft
Olallie Meadows 1 in 3700 ft
Meadows Pass 0 in 3500 ft

Earthquake Activity

City Distance Mag. Time & Date
No recent earthquake activity has been reported nearby.
Minimum magnitude displayed is 2.5.

Coastal Water Temperatures

Place Temperature
Port Townsend, WA 53.1 °F
Seattle, WA 55.9 °F
Friday Harbor, WA 53.1 °F
Tacoma, WA 55.0 °F

Nearby Weather Stations